RYR8UB EPMO-LGKR
Flight info
| Callsign | RYR8UB |
|---|---|
| Flight time | 2h 0m |
| Altitude | 36000 |
| Route | EVINA DCT KUKAM DCT MEBAN/N0461F350 DCT DODAR DCT EBORO DCT PARAK/N0460F360 DCT POD DCT RODON/N0460F350 DCT LIMJA N732 PITAS |
| Aircraft | B738/M-SDE2E3FGHIRWXY/LB1 |
Departure
| Time | 2026-04-15 12:49 |
|---|---|
| Airport | Warsaw Modlin Airport (EPMO) |
Arrival
| Time | 2026-04-15 14:49 |
|---|---|
| Airport | Corfu Ioannis Kapodistrias International Airport (LGKR) |
| Time | Latitude | Longitude | Altitude | Speed | Heading |
|---|---|---|---|---|---|
| 2026-04-15 12:34 | 52.44725 | 20.65021 | 337 ft | 0 kts | 206° |
| 2026-04-15 12:42 | 52.44732 | 20.65027 | 337 ft | 4 kts | 202° |
| 2026-04-15 12:43 | 52.44756 | 20.65035 | 335 ft | 4 kts | 161° |
| 2026-04-15 12:43 | 52.44768 | 20.65016 | 335 ft | 3 kts | 83° |
| 2026-04-15 12:43 | 52.44768 | 20.65011 | 335 ft | 1 kts | 81° |
| 2026-04-15 12:45 | 52.44768 | 20.65013 | 335 ft | 1 kts | 81° |
| 2026-04-15 12:45 | 52.44774 | 20.65071 | 334 ft | 9 kts | 81° |
| 2026-04-15 12:46 | 52.44788 | 20.65223 | 337 ft | 18 kts | 81° |
| 2026-04-15 12:46 | 52.44811 | 20.65466 | 334 ft | 24 kts | 81° |
| 2026-04-15 12:46 | 52.44835 | 20.65733 | 336 ft | 23 kts | 81° |
| 2026-04-15 12:46 | 52.44859 | 20.65988 | 337 ft | 22 kts | 81° |
| 2026-04-15 12:47 | 52.44882 | 20.66236 | 333 ft | 22 kts | 81° |
| 2026-04-15 12:47 | 52.44905 | 20.66477 | 334 ft | 22 kts | 81° |
| 2026-04-15 12:47 | 52.44930 | 20.66751 | 337 ft | 27 kts | 81° |
| 2026-04-15 12:47 | 52.44969 | 20.67046 | 333 ft | 26 kts | 49° |
| 2026-04-15 12:48 | 52.45136 | 20.67048 | 336 ft | 24 kts | 351° |
| 2026-04-15 12:48 | 52.45274 | 20.66935 | 337 ft | 23 kts | 287° |
| 2026-04-15 12:48 | 52.45260 | 20.66662 | 333 ft | 35 kts | 262° |
| 2026-04-15 12:48 | 52.45182 | 20.65817 | 334 ft | 112 kts | 261° |
| 2026-04-15 12:49 | 52.45026 | 20.64195 | 408 ft | 169 kts | 261° |
| 2026-04-15 12:49 | 52.44808 | 20.62259 | 1160 ft | 178 kts | 259° |
| 2026-04-15 12:49 | 52.44597 | 20.60328 | 2261 ft | 170 kts | 260° |
| 2026-04-15 12:49 | 52.44403 | 20.58432 | 3165 ft | 168 kts | 259° |
| 2026-04-15 12:50 | 52.44210 | 20.56536 | 3797 ft | 179 kts | 261° |
| 2026-04-15 12:50 | 52.43871 | 20.54436 | 4215 ft | 199 kts | 236° |
| 2026-04-15 12:50 | 52.42767 | 20.53022 | 4675 ft | 216 kts | 199° |
| 2026-04-15 12:50 | 52.41186 | 20.52798 | 4915 ft | 242 kts | 179° |
| 2026-04-15 12:51 | 52.39425 | 20.52955 | 5252 ft | 261 kts | 178° |
| 2026-04-15 12:51 | 52.37584 | 20.53147 | 5984 ft | 267 kts | 178° |
| 2026-04-15 12:51 | 52.35724 | 20.53344 | 6824 ft | 269 kts | 178° |
| 2026-04-15 12:51 | 52.33842 | 20.53540 | 7579 ft | 273 kts | 178° |
| 2026-04-15 12:52 | 52.31934 | 20.53733 | 8348 ft | 277 kts | 178° |
| 2026-04-15 12:52 | 52.30028 | 20.53922 | 9124 ft | 280 kts | 178° |
| 2026-04-15 12:52 | 52.28069 | 20.54113 | 9905 ft | 284 kts | 179° |
| 2026-04-15 12:52 | 52.26079 | 20.54304 | 10564 ft | 291 kts | 179° |
| 2026-04-15 12:53 | 52.23977 | 20.54502 | 10773 ft | 315 kts | 179° |
| 2026-04-15 12:53 | 52.21714 | 20.54713 | 10963 ft | 337 kts | 178° |
| 2026-04-15 12:53 | 52.19298 | 20.54938 | 11127 ft | 358 kts | 178° |
| 2026-04-15 12:53 | 52.16740 | 20.55177 | 11327 ft | 377 kts | 178° |
| 2026-04-15 12:54 | 52.14089 | 20.55426 | 11796 ft | 385 kts | 178° |
| 2026-04-15 12:54 | 52.11432 | 20.55678 | 12424 ft | 389 kts | 178° |
| 2026-04-15 12:54 | 52.08717 | 20.55935 | 13080 ft | 393 kts | 178° |
| 2026-04-15 12:54 | 52.05974 | 20.56194 | 13708 ft | 397 kts | 178° |
| 2026-04-15 12:55 | 52.03200 | 20.56454 | 14269 ft | 402 kts | 178° |
| 2026-04-15 12:55 | 52.00398 | 20.56717 | 14836 ft | 405 kts | 178° |
| 2026-04-15 12:55 | 51.97578 | 20.56970 | 15439 ft | 407 kts | 180° |
| 2026-04-15 12:55 | 51.94751 | 20.56725 | 16033 ft | 408 kts | 190° |
| 2026-04-15 12:56 | 51.91986 | 20.55697 | 16637 ft | 409 kts | 200° |
| 2026-04-15 12:56 | 51.89305 | 20.54123 | 17235 ft | 411 kts | 202° |
| 2026-04-15 12:56 | 51.86651 | 20.52512 | 17762 ft | 415 kts | 202° |
| 2026-04-15 12:56 | 51.83937 | 20.50874 | 18289 ft | 418 kts | 202° |
| 2026-04-15 12:57 | 51.81194 | 20.49241 | 18767 ft | 422 kts | 202° |
| 2026-04-15 12:57 | 51.78428 | 20.47616 | 19198 ft | 425 kts | 201° |
| 2026-04-15 12:57 | 51.75631 | 20.45985 | 19597 ft | 429 kts | 201° |
| 2026-04-15 12:57 | 51.72808 | 20.44346 | 19999 ft | 433 kts | 201° |
| 2026-04-15 12:58 | 51.69959 | 20.42694 | 20404 ft | 437 kts | 201° |
| 2026-04-15 12:58 | 51.67086 | 20.41036 | 20807 ft | 440 kts | 201° |
| 2026-04-15 12:58 | 51.64152 | 20.39738 | 21182 ft | 446 kts | 192° |
| 2026-04-15 12:58 | 51.61054 | 20.39153 | 21579 ft | 451 kts | 186° |
| 2026-04-15 12:59 | 51.54750 | 20.38346 | 22359 ft | 458 kts | 186° |
| 2026-04-15 12:59 | 51.51561 | 20.37912 | 22726 ft | 461 kts | 186° |
| 2026-04-15 12:59 | 51.48355 | 20.37445 | 23101 ft | 464 kts | 187° |
| 2026-04-15 13:00 | 51.45128 | 20.36958 | 23451 ft | 467 kts | 187° |
| 2026-04-15 13:00 | 51.41924 | 20.36473 | 23796 ft | 470 kts | 187° |
| 2026-04-15 13:00 | 51.38671 | 20.35847 | 24092 ft | 472 kts | 192° |
| 2026-04-15 13:00 | 51.35505 | 20.34518 | 24413 ft | 471 kts | 200° |
| 2026-04-15 13:01 | 51.32396 | 20.32866 | 24766 ft | 471 kts | 200° |
| 2026-04-15 13:01 | 51.29285 | 20.31184 | 25082 ft | 473 kts | 200° |
| 2026-04-15 13:01 | 51.26159 | 20.29504 | 25374 ft | 475 kts | 200° |
| 2026-04-15 13:01 | 51.23015 | 20.27838 | 25675 ft | 477 kts | 200° |
| 2026-04-15 13:02 | 51.19855 | 20.26187 | 25973 ft | 479 kts | 200° |
| 2026-04-15 13:02 | 51.16726 | 20.24567 | 26265 ft | 480 kts | 200° |
| 2026-04-15 13:02 | 51.13541 | 20.22927 | 26547 ft | 481 kts | 200° |
| 2026-04-15 13:02 | 51.10353 | 20.21291 | 26891 ft | 481 kts | 200° |
| 2026-04-15 13:03 | 51.07174 | 20.19662 | 27338 ft | 479 kts | 200° |
| 2026-04-15 13:03 | 51.04012 | 20.18044 | 27794 ft | 476 kts | 200° |
| 2026-04-15 13:03 | 51.00866 | 20.16435 | 28220 ft | 474 kts | 200° |
| 2026-04-15 13:03 | 50.97727 | 20.14829 | 28606 ft | 474 kts | 200° |
| 2026-04-15 13:04 | 50.94591 | 20.13228 | 29008 ft | 473 kts | 200° |
| 2026-04-15 13:04 | 50.91468 | 20.11634 | 29433 ft | 471 kts | 200° |
| 2026-04-15 13:04 | 50.88396 | 20.10067 | 29854 ft | 469 kts | 200° |
| 2026-04-15 13:04 | 50.85293 | 20.08488 | 30247 ft | 468 kts | 200° |
| 2026-04-15 13:05 | 50.82194 | 20.06915 | 30576 ft | 467 kts | 200° |
| 2026-04-15 13:05 | 50.79071 | 20.05471 | 30843 ft | 469 kts | 195° |
| 2026-04-15 13:05 | 50.75878 | 20.04373 | 31067 ft | 471 kts | 194° |
| 2026-04-15 13:05 | 50.72657 | 20.03393 | 31323 ft | 471 kts | 193° |
| 2026-04-15 13:06 | 50.69434 | 20.02453 | 31611 ft | 471 kts | 193° |
| 2026-04-15 13:06 | 50.66255 | 20.01525 | 31872 ft | 471 kts | 193° |
| 2026-04-15 13:06 | 50.63035 | 20.00565 | 32112 ft | 471 kts | 193° |
| 2026-04-15 13:06 | 50.59815 | 19.99586 | 32358 ft | 472 kts | 193° |
| 2026-04-15 13:07 | 50.56596 | 19.98594 | 32629 ft | 471 kts | 193° |
| 2026-04-15 13:07 | 50.53382 | 19.97595 | 32888 ft | 471 kts | 194° |
| 2026-04-15 13:07 | 50.50164 | 19.96591 | 33114 ft | 472 kts | 194° |
| 2026-04-15 13:07 | 50.46943 | 19.95586 | 33355 ft | 472 kts | 194° |
| 2026-04-15 13:08 | 50.43725 | 19.94584 | 33626 ft | 472 kts | 193° |
| 2026-04-15 13:08 | 50.40549 | 19.93597 | 33885 ft | 471 kts | 193° |
| 2026-04-15 13:08 | 50.37334 | 19.92600 | 34122 ft | 472 kts | 193° |
| 2026-04-15 13:08 | 50.34114 | 19.91604 | 34330 ft | 472 kts | 193° |
| 2026-04-15 13:09 | 50.30891 | 19.90608 | 34547 ft | 471 kts | 193° |
| 2026-04-15 13:09 | 50.27678 | 19.89617 | 34791 ft | 470 kts | 193° |
| 2026-04-15 13:09 | 50.24475 | 19.88631 | 35002 ft | 469 kts | 193° |
| 2026-04-15 13:09 | 50.21270 | 19.87645 | 35186 ft | 469 kts | 193° |
| 2026-04-15 13:10 | 50.19149 | 19.86993 | 35315 ft | 469 kts | 193° |
| 2026-04-15 13:10 | 50.14870 | 19.85680 | 35606 ft | 468 kts | 193° |
| 2026-04-15 13:10 | 50.12756 | 19.85032 | 35742 ft | 468 kts | 193° |
| 2026-04-15 13:10 | 50.08529 | 19.83738 | 35988 ft | 468 kts | 193° |
| 2026-04-15 13:11 | 50.05339 | 19.82763 | 36211 ft | 467 kts | 193° |
| 2026-04-15 13:11 | 50.02140 | 19.81786 | 36218 ft | 470 kts | 193° |
| 2026-04-15 13:11 | 49.95733 | 19.79834 | 36225 ft | 467 kts | 193° |
| 2026-04-15 13:12 | 49.89388 | 19.77908 | 36231 ft | 463 kts | 193° |
| 2026-04-15 13:12 | 49.83126 | 19.76011 | 36231 ft | 460 kts | 193° |
| 2026-04-15 13:13 | 49.76849 | 19.74114 | 36234 ft | 459 kts | 193° |
| 2026-04-15 13:13 | 49.71644 | 19.72544 | 36229 ft | 459 kts | 193° |
| 2026-04-15 13:14 | 49.65376 | 19.70657 | 36234 ft | 459 kts | 193° |
| 2026-04-15 13:14 | 49.58069 | 19.68463 | 36231 ft | 461 kts | 193° |
| 2026-04-15 13:15 | 49.52788 | 19.66880 | 36228 ft | 462 kts | 193° |
| 2026-04-15 13:15 | 49.45428 | 19.64727 | 36222 ft | 465 kts | 190° |
| 2026-04-15 13:16 | 49.40046 | 19.64171 | 36222 ft | 468 kts | 184° |
| 2026-04-15 13:16 | 49.32473 | 19.63890 | 36214 ft | 469 kts | 183° |
| 2026-04-15 13:17 | 49.25952 | 19.63620 | 36204 ft | 469 kts | 184° |
| 2026-04-15 13:17 | 49.20529 | 19.63346 | 36211 ft | 469 kts | 184° |
| 2026-04-15 13:18 | 49.14014 | 19.62989 | 36192 ft | 468 kts | 184° |
| 2026-04-15 13:18 | 49.07515 | 19.62629 | 36202 ft | 467 kts | 184° |
| 2026-04-15 13:19 | 49.01037 | 19.62273 | 36201 ft | 465 kts | 184° |
| 2026-04-15 13:19 | 48.94609 | 19.61923 | 36204 ft | 465 kts | 184° |
| 2026-04-15 13:20 | 48.88154 | 19.61572 | 36194 ft | 464 kts | 184° |
| 2026-04-15 13:20 | 48.81711 | 19.61223 | 36189 ft | 463 kts | 184° |
| 2026-04-15 13:21 | 48.75285 | 19.60876 | 36187 ft | 461 kts | 184° |
| 2026-04-15 13:21 | 48.68917 | 19.60533 | 36191 ft | 460 kts | 184° |
| 2026-04-15 13:22 | 48.62521 | 19.60189 | 36187 ft | 460 kts | 184° |
| 2026-04-15 13:22 | 48.56134 | 19.59846 | 36184 ft | 459 kts | 184° |
| 2026-04-15 13:23 | 48.49748 | 19.59504 | 36179 ft | 459 kts | 184° |
| 2026-04-15 13:23 | 48.43406 | 19.59166 | 36190 ft | 459 kts | 184° |
| 2026-04-15 13:24 | 48.37019 | 19.58827 | 36179 ft | 459 kts | 184° |
| 2026-04-15 13:24 | 48.30634 | 19.58487 | 36184 ft | 459 kts | 184° |
| 2026-04-15 13:25 | 48.24247 | 19.58149 | 36173 ft | 459 kts | 184° |
| 2026-04-15 13:25 | 48.17908 | 19.57814 | 36169 ft | 459 kts | 184° |
| 2026-04-15 13:26 | 48.11529 | 19.57478 | 36183 ft | 459 kts | 184° |
| 2026-04-15 13:26 | 48.05152 | 19.57142 | 36182 ft | 459 kts | 184° |
| 2026-04-15 13:27 | 47.98764 | 19.56807 | 36171 ft | 459 kts | 184° |
| 2026-04-15 13:27 | 47.92432 | 19.56476 | 36174 ft | 458 kts | 184° |
| 2026-04-15 13:28 | 47.86069 | 19.56144 | 36175 ft | 457 kts | 184° |
| 2026-04-15 13:28 | 47.79712 | 19.55813 | 36185 ft | 457 kts | 184° |
| 2026-04-15 13:29 | 47.73354 | 19.55482 | 36177 ft | 456 kts | 184° |
| 2026-04-15 13:29 | 47.67055 | 19.55155 | 36178 ft | 456 kts | 185° |
| 2026-04-15 13:30 | 47.60721 | 19.54828 | 36181 ft | 455 kts | 185° |
| 2026-04-15 13:30 | 47.54394 | 19.54501 | 36181 ft | 455 kts | 185° |
| 2026-04-15 13:31 | 47.48072 | 19.54175 | 36183 ft | 454 kts | 185° |
| 2026-04-15 13:31 | 47.41752 | 19.53849 | 36178 ft | 455 kts | 185° |
| 2026-04-15 13:32 | 47.35474 | 19.53526 | 36184 ft | 454 kts | 185° |
| 2026-04-15 13:32 | 47.29153 | 19.53200 | 36172 ft | 455 kts | 185° |
| 2026-04-15 13:33 | 47.22818 | 19.53065 | 36169 ft | 458 kts | 178° |
| 2026-04-15 13:33 | 47.16591 | 19.55194 | 36184 ft | 464 kts | 162° |
| 2026-04-15 13:34 | 47.10559 | 19.58566 | 36176 ft | 464 kts | 161° |
| 2026-04-15 13:34 | 47.04567 | 19.61927 | 36178 ft | 464 kts | 162° |
| 2026-04-15 13:35 | 46.98516 | 19.65239 | 36187 ft | 464 kts | 162° |
| 2026-04-15 13:35 | 46.92457 | 19.68509 | 36183 ft | 464 kts | 162° |
| 2026-04-15 13:36 | 46.86395 | 19.71768 | 36195 ft | 464 kts | 162° |
| 2026-04-15 13:36 | 46.80371 | 19.75001 | 36184 ft | 464 kts | 162° |
| 2026-04-15 13:37 | 46.74311 | 19.78248 | 36182 ft | 464 kts | 163° |
| 2026-04-15 13:37 | 46.68257 | 19.81485 | 36179 ft | 463 kts | 163° |
| 2026-04-15 13:38 | 46.62212 | 19.84708 | 36179 ft | 463 kts | 163° |
| 2026-04-15 13:38 | 46.56209 | 19.87901 | 36170 ft | 462 kts | 163° |
| 2026-04-15 13:39 | 46.50175 | 19.91103 | 36173 ft | 461 kts | 162° |
| 2026-04-15 13:39 | 46.44146 | 19.94293 | 36172 ft | 461 kts | 162° |
| 2026-04-15 13:40 | 46.38125 | 19.97473 | 36173 ft | 460 kts | 162° |
| 2026-04-15 13:40 | 46.32160 | 20.00671 | 36172 ft | 460 kts | 161° |
| 2026-04-15 13:41 | 46.26187 | 20.04005 | 36171 ft | 460 kts | 161° |
| 2026-04-15 13:41 | 46.20200 | 20.07273 | 36164 ft | 459 kts | 166° |
| 2026-04-15 13:42 | 46.13977 | 20.08613 | 36173 ft | 451 kts | 183° |
| 2026-04-15 13:42 | 46.07844 | 20.07546 | 36175 ft | 447 kts | 192° |
| 2026-04-15 13:43 | 46.01716 | 20.06016 | 36175 ft | 447 kts | 192° |
| 2026-04-15 13:43 | 45.95582 | 20.04513 | 36172 ft | 448 kts | 192° |
| 2026-04-15 13:44 | 45.89426 | 20.03046 | 36170 ft | 449 kts | 192° |
| 2026-04-15 13:44 | 45.83305 | 20.01609 | 36170 ft | 449 kts | 192° |
| 2026-04-15 13:45 | 45.77132 | 20.00166 | 36173 ft | 450 kts | 192° |
| 2026-04-15 13:47 | 45.52419 | 19.94416 | 36163 ft | 451 kts | 192° |
| 2026-04-15 13:47 | 45.46227 | 19.92983 | 36160 ft | 451 kts | 192° |
| 2026-04-15 13:48 | 45.40038 | 19.91554 | 36162 ft | 451 kts | 192° |
| 2026-04-15 13:48 | 45.33846 | 19.90127 | 36159 ft | 451 kts | 192° |
| 2026-04-15 13:49 | 45.27700 | 19.88713 | 36158 ft | 450 kts | 192° |
| 2026-04-15 13:49 | 45.21515 | 19.87295 | 36162 ft | 450 kts | 192° |
| 2026-04-15 13:50 | 45.15332 | 19.85879 | 36155 ft | 450 kts | 192° |
| 2026-04-15 13:50 | 45.09151 | 19.84467 | 36155 ft | 450 kts | 191° |
| 2026-04-15 13:51 | 45.03018 | 19.83070 | 36148 ft | 449 kts | 191° |
| 2026-04-15 13:51 | 44.96847 | 19.81666 | 36150 ft | 449 kts | 191° |
| 2026-04-15 13:52 | 44.90682 | 19.80267 | 36149 ft | 448 kts | 191° |
| 2026-04-15 13:52 | 44.84523 | 19.78872 | 36155 ft | 448 kts | 191° |
| 2026-04-15 13:53 | 44.78411 | 19.77491 | 36145 ft | 448 kts | 191° |
| 2026-04-15 13:53 | 44.72263 | 19.76105 | 36147 ft | 447 kts | 191° |
| 2026-04-15 13:54 | 44.66123 | 19.74724 | 36148 ft | 447 kts | 191° |
| 2026-04-15 13:54 | 44.59983 | 19.73345 | 36148 ft | 447 kts | 191° |
| 2026-04-15 13:55 | 44.53886 | 19.71979 | 36142 ft | 447 kts | 191° |
| 2026-04-15 13:55 | 44.47746 | 19.70607 | 36142 ft | 447 kts | 191° |
| 2026-04-15 13:56 | 44.41605 | 19.69237 | 36142 ft | 447 kts | 191° |
| 2026-04-15 13:56 | 44.35462 | 19.67870 | 36136 ft | 447 kts | 190° |
| 2026-04-15 13:57 | 44.29364 | 19.66515 | 36131 ft | 447 kts | 190° |
| 2026-04-15 13:57 | 44.23229 | 19.65155 | 36128 ft | 446 kts | 190° |
| 2026-04-15 13:58 | 44.17102 | 19.63800 | 36131 ft | 445 kts | 190° |
| 2026-04-15 13:58 | 44.10983 | 19.62449 | 36121 ft | 445 kts | 190° |
| 2026-04-15 13:59 | 44.04907 | 19.61111 | 36118 ft | 445 kts | 190° |
| 2026-04-15 13:59 | 43.98795 | 19.59768 | 36112 ft | 444 kts | 190° |
| 2026-04-15 14:00 | 43.92689 | 19.58428 | 36108 ft | 444 kts | 190° |
| 2026-04-15 14:00 | 43.86581 | 19.57091 | 36106 ft | 444 kts | 190° |
| 2026-04-15 14:01 | 43.77470 | 19.55101 | 36100 ft | 444 kts | 191° |
| 2026-04-15 14:02 | 43.71372 | 19.53774 | 36098 ft | 444 kts | 191° |
| 2026-04-15 14:02 | 43.65276 | 19.52448 | 36097 ft | 443 kts | 190° |
| 2026-04-15 14:03 | 43.59180 | 19.51126 | 36084 ft | 443 kts | 190° |
| 2026-04-15 14:03 | 43.53130 | 19.49816 | 36073 ft | 443 kts | 190° |
| 2026-04-15 14:04 | 43.47049 | 19.48502 | 36084 ft | 442 kts | 190° |
| 2026-04-15 14:04 | 43.40970 | 19.47192 | 36070 ft | 442 kts | 190° |
| 2026-04-15 14:05 | 43.34901 | 19.45886 | 36066 ft | 441 kts | 190° |
| 2026-04-15 14:05 | 43.28878 | 19.44593 | 36067 ft | 441 kts | 190° |
| 2026-04-15 14:06 | 43.22822 | 19.43296 | 36063 ft | 440 kts | 190° |
| 2026-04-15 14:06 | 43.16771 | 19.42003 | 36058 ft | 439 kts | 190° |
| 2026-04-15 14:07 | 43.10739 | 19.40716 | 36052 ft | 438 kts | 190° |
| 2026-04-15 14:07 | 43.04715 | 19.39432 | 36056 ft | 437 kts | 190° |
| 2026-04-15 14:08 | 42.98750 | 19.38165 | 36049 ft | 436 kts | 190° |
| 2026-04-15 14:08 | 42.92768 | 19.36896 | 36052 ft | 434 kts | 190° |
| 2026-04-15 14:09 | 42.86809 | 19.35633 | 36049 ft | 433 kts | 190° |
| 2026-04-15 14:09 | 42.80861 | 19.34374 | 36041 ft | 432 kts | 190° |
| 2026-04-15 14:10 | 42.74967 | 19.33131 | 36050 ft | 431 kts | 190° |
| 2026-04-15 14:10 | 42.69042 | 19.31884 | 36049 ft | 431 kts | 190° |
| 2026-04-15 14:11 | 42.63120 | 19.30639 | 36048 ft | 431 kts | 190° |
| 2026-04-15 14:11 | 42.57197 | 19.29396 | 36050 ft | 431 kts | 190° |
| 2026-04-15 14:12 | 42.51312 | 19.28162 | 36048 ft | 431 kts | 190° |
| 2026-04-15 14:12 | 42.45392 | 19.26923 | 36046 ft | 430 kts | 190° |
| 2026-04-15 14:13 | 42.39479 | 19.25689 | 36047 ft | 429 kts | 190° |
| 2026-04-15 14:13 | 42.33603 | 19.24587 | 36047 ft | 429 kts | 188° |
| 2026-04-15 14:14 | 42.27679 | 19.23626 | 36047 ft | 428 kts | 188° |
| 2026-04-15 14:14 | 42.21773 | 19.22662 | 36048 ft | 427 kts | 188° |
| 2026-04-15 14:15 | 42.15876 | 19.21679 | 36045 ft | 427 kts | 188° |
| 2026-04-15 14:15 | 42.10034 | 19.20697 | 36050 ft | 425 kts | 188° |
| 2026-04-15 14:16 | 42.04158 | 19.19710 | 36051 ft | 425 kts | 188° |
| 2026-04-15 14:16 | 41.98287 | 19.18726 | 36045 ft | 425 kts | 188° |
| 2026-04-15 14:17 | 41.92423 | 19.17745 | 36059 ft | 424 kts | 188° |
| 2026-04-15 14:17 | 41.86607 | 19.16774 | 36050 ft | 423 kts | 188° |
| 2026-04-15 14:18 | 41.80771 | 19.15801 | 36056 ft | 422 kts | 188° |
| 2026-04-15 14:18 | 41.74952 | 19.14833 | 36059 ft | 421 kts | 188° |
| 2026-04-15 14:19 | 41.69151 | 19.13869 | 36055 ft | 420 kts | 188° |
| 2026-04-15 14:19 | 41.63400 | 19.12915 | 36054 ft | 419 kts | 188° |
| 2026-04-15 14:20 | 41.57627 | 19.11957 | 36053 ft | 418 kts | 188° |
| 2026-04-15 14:20 | 41.51863 | 19.11005 | 36052 ft | 417 kts | 188° |
| 2026-04-15 14:21 | 41.46112 | 19.10747 | 36059 ft | 419 kts | 176° |
| 2026-04-15 14:21 | 41.40421 | 19.12512 | 36055 ft | 423 kts | 163° |
| 2026-04-15 14:22 | 41.34897 | 19.15255 | 36053 ft | 424 kts | 163° |
| 2026-04-15 14:22 | 41.29377 | 19.18012 | 36051 ft | 424 kts | 163° |
| 2026-04-15 14:23 | 41.23886 | 19.20711 | 36055 ft | 424 kts | 163° |
| 2026-04-15 14:23 | 41.18346 | 19.23408 | 36054 ft | 424 kts | 163° |
| 2026-04-15 14:24 | 41.12805 | 19.26096 | 36053 ft | 424 kts | 164° |
| 2026-04-15 14:24 | 41.07258 | 19.28782 | 36051 ft | 425 kts | 164° |
| 2026-04-15 14:25 | 41.01743 | 19.31448 | 36053 ft | 425 kts | 164° |
| 2026-04-15 14:25 | 40.96187 | 19.34130 | 36054 ft | 426 kts | 164° |
| 2026-04-15 14:26 | 40.90615 | 19.36814 | 36069 ft | 427 kts | 164° |
| 2026-04-15 14:26 | 40.85020 | 19.39503 | 36065 ft | 428 kts | 164° |
| 2026-04-15 14:27 | 40.79446 | 19.42179 | 36059 ft | 429 kts | 164° |
| 2026-04-15 14:27 | 40.73831 | 19.44870 | 36077 ft | 430 kts | 164° |
| 2026-04-15 14:28 | 40.68177 | 19.47572 | 36016 ft | 434 kts | 164° |
| 2026-04-15 14:28 | 40.65322 | 19.48935 | 35524 ft | 435 kts | 165° |
| 2026-04-15 14:28 | 40.62495 | 19.50287 | 34891 ft | 432 kts | 165° |
| 2026-04-15 14:28 | 40.59668 | 19.51634 | 34263 ft | 430 kts | 166° |
| 2026-04-15 14:29 | 40.56913 | 19.52950 | 33660 ft | 425 kts | 166° |
| 2026-04-15 14:29 | 40.54135 | 19.54270 | 33238 ft | 418 kts | 166° |
| 2026-04-15 14:29 | 40.51386 | 19.55576 | 32379 ft | 422 kts | 165° |
| 2026-04-15 14:29 | 40.48631 | 19.56881 | 31698 ft | 422 kts | 164° |
| 2026-04-15 14:30 | 40.45860 | 19.58190 | 30978 ft | 425 kts | 163° |
| 2026-04-15 14:30 | 40.43062 | 19.59511 | 30216 ft | 431 kts | 163° |
| 2026-04-15 14:30 | 40.40213 | 19.60854 | 29280 ft | 438 kts | 162° |
| 2026-04-15 14:30 | 40.37335 | 19.62213 | 28382 ft | 441 kts | 162° |
| 2026-04-15 14:31 | 40.34479 | 19.63562 | 27524 ft | 442 kts | 162° |
| 2026-04-15 14:31 | 40.31576 | 19.64932 | 26611 ft | 445 kts | 162° |
| 2026-04-15 14:31 | 40.28660 | 19.66305 | 25764 ft | 446 kts | 162° |
| 2026-04-15 14:31 | 40.25753 | 19.67674 | 25126 ft | 442 kts | 162° |
| 2026-04-15 14:32 | 40.22867 | 19.69032 | 24442 ft | 440 kts | 162° |
| 2026-04-15 14:32 | 40.19994 | 19.70382 | 23767 ft | 438 kts | 161° |
| 2026-04-15 14:32 | 40.17133 | 19.71725 | 23004 ft | 435 kts | 161° |
| 2026-04-15 14:32 | 40.14299 | 19.73054 | 22326 ft | 431 kts | 161° |
| 2026-04-15 14:33 | 40.11485 | 19.74373 | 21643 ft | 428 kts | 161° |
| 2026-04-15 14:33 | 40.08729 | 19.75663 | 20991 ft | 425 kts | 161° |
| 2026-04-15 14:33 | 40.05959 | 19.76958 | 20341 ft | 421 kts | 161° |
| 2026-04-15 14:33 | 40.03211 | 19.78242 | 19700 ft | 418 kts | 161° |
| 2026-04-15 14:34 | 40.00481 | 19.79517 | 19063 ft | 415 kts | 161° |
| 2026-04-15 14:34 | 39.97768 | 19.80782 | 18411 ft | 413 kts | 161° |
| 2026-04-15 14:34 | 39.95069 | 19.82040 | 17693 ft | 411 kts | 161° |
| 2026-04-15 14:34 | 39.92391 | 19.83287 | 17020 ft | 407 kts | 161° |
| 2026-04-15 14:35 | 39.89728 | 19.84501 | 16367 ft | 403 kts | 163° |
| 2026-04-15 14:35 | 39.87038 | 19.85297 | 15614 ft | 403 kts | 170° |
| 2026-04-15 14:35 | 39.84273 | 19.85870 | 14910 ft | 401 kts | 171° |
| 2026-04-15 14:35 | 39.81522 | 19.86405 | 14325 ft | 398 kts | 171° |
| 2026-04-15 14:36 | 39.78798 | 19.86951 | 13716 ft | 394 kts | 171° |
| 2026-04-15 14:36 | 39.76107 | 19.87516 | 13069 ft | 390 kts | 170° |
| 2026-04-15 14:36 | 39.73451 | 19.88094 | 12510 ft | 384 kts | 170° |
| 2026-04-15 14:36 | 39.70836 | 19.88673 | 11963 ft | 379 kts | 170° |
| 2026-04-15 14:37 | 39.68257 | 19.89248 | 11438 ft | 373 kts | 170° |
| 2026-04-15 14:37 | 39.65775 | 19.89801 | 11205 ft | 360 kts | 170° |
| 2026-04-15 14:37 | 39.63345 | 19.90342 | 10944 ft | 348 kts | 169° |
| 2026-04-15 14:37 | 39.60994 | 19.90793 | 10783 ft | 336 kts | 176° |
| 2026-04-15 14:38 | 39.58716 | 19.90475 | 10640 ft | 325 kts | 191° |
| 2026-04-15 14:38 | 39.56553 | 19.89830 | 10506 ft | 314 kts | 192° |
| 2026-04-15 14:38 | 39.54464 | 19.89185 | 10388 ft | 304 kts | 192° |
| 2026-04-15 14:38 | 39.52433 | 19.88561 | 10280 ft | 297 kts | 192° |
| 2026-04-15 14:39 | 39.50440 | 19.87949 | 10145 ft | 292 kts | 191° |
| 2026-04-15 14:39 | 39.48475 | 19.87348 | 9986 ft | 289 kts | 191° |
| 2026-04-15 14:39 | 39.46553 | 19.86767 | 10058 ft | 281 kts | 191° |
| 2026-04-15 14:39 | 39.44655 | 19.86197 | 10026 ft | 279 kts | 191° |
| 2026-04-15 14:40 | 39.42815 | 19.85647 | 9946 ft | 270 kts | 191° |
| 2026-04-15 14:40 | 39.41014 | 19.85109 | 9772 ft | 262 kts | 190° |
| 2026-04-15 14:40 | 39.39246 | 19.84582 | 9443 ft | 260 kts | 190° |
| 2026-04-15 14:40 | 39.37484 | 19.84059 | 9053 ft | 259 kts | 190° |
| 2026-04-15 14:41 | 39.35734 | 19.83541 | 8671 ft | 257 kts | 190° |
| 2026-04-15 14:41 | 39.33999 | 19.83027 | 8232 ft | 255 kts | 190° |
| 2026-04-15 14:41 | 39.32276 | 19.82518 | 7793 ft | 253 kts | 190° |
| 2026-04-15 14:41 | 39.30556 | 19.82130 | 7343 ft | 249 kts | 174° |
| 2026-04-15 14:42 | 39.29000 | 19.82887 | 6880 ft | 246 kts | 140° |
| 2026-04-15 14:42 | 39.27959 | 19.84610 | 6547 ft | 243 kts | 121° |
| 2026-04-15 14:42 | 39.27429 | 19.86664 | 6221 ft | 241 kts | 102° |
| 2026-04-15 14:42 | 39.27263 | 19.88821 | 5932 ft | 243 kts | 96° |
| 2026-04-15 14:43 | 39.27253 | 19.90998 | 5671 ft | 243 kts | 92° |
| 2026-04-15 14:43 | 39.27334 | 19.93173 | 5398 ft | 242 kts | 90° |
| 2026-04-15 14:43 | 39.27462 | 19.95339 | 5136 ft | 242 kts | 89° |
| 2026-04-15 14:43 | 39.27793 | 19.97469 | 4843 ft | 248 kts | 67° |
| 2026-04-15 14:44 | 39.28944 | 19.99120 | 4657 ft | 252 kts | 34° |
| 2026-04-15 14:44 | 39.30592 | 19.99764 | 4542 ft | 257 kts | 2° |
| 2026-04-15 14:44 | 39.32389 | 19.99470 | 4413 ft | 265 kts | 348° |
| 2026-04-15 14:44 | 39.34196 | 19.98895 | 4280 ft | 269 kts | 346° |
| 2026-04-15 14:45 | 39.36028 | 19.98283 | 4047 ft | 275 kts | 346° |
| 2026-04-15 14:45 | 39.37913 | 19.97927 | 3768 ft | 273 kts | 358° |
| 2026-04-15 14:45 | 39.39803 | 19.97844 | 3542 ft | 271 kts | 0° |
| 2026-04-15 14:45 | 39.41672 | 19.97781 | 3284 ft | 267 kts | 0° |
| 2026-04-15 14:46 | 39.43505 | 19.97502 | 2992 ft | 266 kts | 347° |
| 2026-04-15 14:46 | 39.45222 | 19.96842 | 2706 ft | 256 kts | 343° |
| 2026-04-15 14:46 | 39.46877 | 19.96162 | 2440 ft | 243 kts | 343° |
| 2026-04-15 14:46 | 39.48454 | 19.95526 | 2208 ft | 233 kts | 345° |
| 2026-04-15 14:47 | 39.49988 | 19.94937 | 1896 ft | 225 kts | 345° |
| 2026-04-15 14:47 | 39.51456 | 19.94386 | 1609 ft | 214 kts | 345° |
| 2026-04-15 14:47 | 39.52848 | 19.93865 | 1338 ft | 203 kts | 344° |
| 2026-04-15 14:47 | 39.54174 | 19.93349 | 1049 ft | 195 kts | 341° |
| 2026-04-15 14:48 | 39.55394 | 19.92691 | 834 ft | 181 kts | 337° |
| 2026-04-15 14:48 | 39.56521 | 19.92151 | 628 ft | 168 kts | 343° |
| 2026-04-15 14:48 | 39.57599 | 19.91846 | 397 ft | 159 kts | 349° |
| 2026-04-15 14:48 | 39.58675 | 19.91612 | 161 ft | 155 kts | 346° |
| 2026-04-15 14:49 | 39.59708 | 19.91336 | 22 ft | 144 kts | 347° |
| 2026-04-15 14:49 | 39.60491 | 19.91135 | 18 ft | 84 kts | 349° |
| 2026-04-15 14:49 | 39.60840 | 19.91045 | 19 ft | 33 kts | 348° |
| 2026-04-15 14:49 | 39.61030 | 19.91042 | 18 ft | 23 kts | 43° |
| 2026-04-15 14:50 | 39.61000 | 19.91139 | 18 ft | 14 kts | 163° |
| 2026-04-15 14:50 | 39.60902 | 19.91165 | 19 ft | 15 kts | 168° |
| 2026-04-15 14:50 | 39.60791 | 19.91194 | 17 ft | 18 kts | 168° |
| 2026-04-15 14:50 | 39.60666 | 19.91237 | 19 ft | 19 kts | 137° |
| 2026-04-15 14:51 | 39.60667 | 19.91355 | 17 ft | 3 kts | 79° |